Time;durP1;ratioP1;P1;durP2;ratioP2;P2;SDS_P1;SDS_P2;PMS_P1;PMS_P2;Temp;Humidity;BMP_temperature;BMP_pressure;BME280_temperature;BME280_humidity;BME280_pressure;Samples;Min_cycle;Max_cycle;Signal;HPM_P1;HPM_P2
2023/04/22 00:01:50;;;;;;;13.77;2.15;;;;;;;15.82;46.53;98027.13;5091458;28;20016;-47
2023/04/22 00:04:15;;;;;;;4.68;1.77;;;;;;;15.89;46.48;98033.00;5091487;28;20055;-47
2023/04/22 00:06:41;;;;;;;17.77;13.35;;;;;;;15.85;46.22;98031.13;5091418;28;20013;-46
2023/04/22 00:09:07;;;;;;;4.13;1.77;;;;;;;15.83;45.52;98028.72;5090159;28;20028;-47
2023/04/22 00:11:33;;;;;;;13.20;6.90;;;;;;;15.62;46.34;98035.63;5091441;28;20401;-47
2023/04/22 00:13:58;;;;;;;10.38;2.53;;;;;;;15.46;46.30;98032.03;5091455;28;20100;-46
2023/04/22 00:16:25;;;;;;;11.25;2.78;;;;;;;15.30;46.74;98033.69;5091322;28;20027;-46
2023/04/22 00:18:50;;;;;;;6.07;1.85;;;;;;;15.26;47.16;98039.72;5090149;28;20020;-47
2023/04/22 00:21:16;;;;;;;4.78;1.65;;;;;;;15.30;47.33;98028.41;5092249;28;20404;-46
2023/04/22 00:23:44;;;;;;;8.73;2.22;;;;;;;15.30;47.35;98041.63;5093813;28;20054;-46
2023/04/22 00:26:10;;;;;;;4.10;1.60;;;;;;;15.27;47.00;98034.22;5094919;28;20031;-46
2023/04/22 00:28:36;;;;;;;8.95;1.80;;;;;;;15.18;47.04;98040.97;5094979;28;20024;-47
2023/04/22 00:31:03;;;;;;;6.10;2.22;;;;;;;15.13;47.00;98035.59;5094973;28;20503;-47
2023/04/22 00:33:29;;;;;;;4.78;1.90;;;;;;;15.09;46.99;98039.78;5110350;28;20134;-47
2023/04/22 00:35:55;;;;;;;6.88;1.90;;;;;;;15.05;47.20;98038.66;5093541;28;20024;-47
2023/04/22 00:38:21;;;;;;;6.40;1.83;;;;;;;15.00;47.49;98035.97;5094767;28;20030;-47
2023/04/22 00:40:47;;;;;;;6.07;1.73;;;;;;;15.04;47.41;98037.09;5094614;28;20024;-47
2023/04/22 00:43:15;;;;;;;2.38;1.60;;;;;;;15.05;47.28;98031.56;5110485;28;20028;-47
2023/04/22 00:45:42;;;;;;;4.20;1.50;;;;;;;15.12;47.15;98031.38;5110252;28;20107;-47
2023/04/22 00:48:08;;;;;;;4.50;1.70;;;;;;;15.23;47.09;98032.28;5094623;28;20027;-47
2023/04/22 00:50:34;;;;;;;5.60;1.63;;;;;;;15.35;46.58;98017.09;5110176;28;20054;-47
2023/04/22 00:52:59;;;;;;;8.07;1.75;;;;;;;15.49;46.41;98020.16;5094786;28;20047;-47
2023/04/22 00:55:25;;;;;;;5.00;2.08;;;;;;;15.51;46.07;98010.13;5110471;28;20541;-47
2023/04/22 00:57:53;;;;;;;2.95;1.52;;;;;;;15.49;46.01;98013.03;5110346;28;20030;-47
2023/04/22 01:00:22;;;;;;;7.07;1.75;;;;;;;15.53;46.21;98011.50;5110020;28;20028;-47
2023/04/22 01:02:48;;;;;;;3.38;2.03;;;;;;;15.57;46.01;98017.06;5076694;28;20020;-47
2023/04/22 01:05:14;;;;;;;14.60;2.28;;;;;;;15.55;46.25;98016.50;5093127;28;20028;-47
2023/04/22 01:07:39;;;;;;;4.45;1.70;;;;;;;15.58;46.33;98011.53;5109883;28;20024;-47
2023/04/22 01:10:06;;;;;;;9.35;2.78;;;;;;;15.68;46.06;98010.03;5094194;28;20103;-47
2023/04/22 01:12:32;;;;;;;2.83;1.70;;;;;;;15.75;46.16;98008.81;5109800;28;20035;-47
2023/04/22 01:14:57;;;;;;;8.10;2.17;;;;;;;15.75;46.22;98011.47;5075966;28;20019;-47
2023/04/22 01:17:23;;;;;;;6.38;1.40;;;;;;;15.86;46.01;98008.91;5109669;28;20020;-46
2023/04/22 01:19:50;;;;;;;8.98;2.53;;;;;;;15.96;45.55;98019.59;5109710;28;20031;-46
2023/04/22 01:22:15;;;;;;;5.07;1.67;;;;;;;15.96;45.65;98027.53;5093885;28;20038;-46
2023/04/22 01:24:41;;;;;;;4.75;1.83;;;;;;;15.90;45.79;98025.88;5093870;28;20024;-46
2023/04/22 01:27:08;;;;;;;7.50;2.20;;;;;;;15.96;45.92;98020.38;5094019;28;20059;-47
2023/04/22 01:29:35;;;;;;;6.57;1.67;;;;;;;15.98;45.45;98023.56;5093818;28;20041;-46
2023/04/22 01:32:02;;;;;;;4.78;1.60;;;;;;;15.93;46.04;98020.09;5092317;28;20430;-46
2023/04/22 01:34:29;;;;;;;15.27;2.60;;;;;;;15.99;45.73;98029.66;5108350;28;20127;-46
2023/04/22 01:36:55;;;;;;;5.43;1.85;;;;;;;16.12;45.42;98037.19;5093684;28;20040;-46
2023/04/22 01:39:20;;;;;;;4.15;2.25;;;;;;;16.12;45.53;98034.53;5093609;28;20035;-47
2023/04/22 01:41:46;;;;;;;5.03;1.90;;;;;;;16.07;45.71;98037.13;5075423;28;20119;-47
2023/04/22 01:44:13;;;;;;;4.07;1.70;;;;;;;16.01;45.29;98030.19;5109271;28;20386;-47
2023/04/22 01:46:38;;;;;;;6.47;2.17;;;;;;;15.94;45.73;98029.63;5093350;28;20035;-46
2023/04/22 01:49:04;;;;;;;8.55;1.95;;;;;;;15.97;45.67;98032.56;5109185;28;20024;-46
2023/04/22 01:51:30;;;;;;;5.80;1.50;;;;;;;16.05;45.48;98033.16;5093317;28;20024;-46
2023/04/22 01:53:56;;;;;;;9.35;2.10;;;;;;;16.04;45.54;98028.94;5093543;28;20098;-47
2023/04/22 01:56:22;;;;;;;7.32;2.25;;;;;;;16.01;45.33;98027.56;5093245;28;20615;-47
2023/04/22 01:58:48;;;;;;;5.95;2.13;;;;;;;16.01;45.60;98040.78;5092047;28;20059;-46
2023/04/22 02:01:14;;;;;;;5.88;1.85;;;;;;;16.01;45.55;98032.06;5093168;28;20494;-47
2023/04/22 02:03:40;;;;;;;6.10;1.70;;;;;;;16.03;45.41;98032.59;5093178;28;20031;-47
2023/04/22 02:06:06;;;;;;;8.82;2.08;;;;;;;16.01;45.41;98032.84;5108603;28;20032;-46
2023/04/22 02:08:32;;;;;;;7.63;2.05;;;;;;;16.01;45.63;98035.50;5092990;28;20065;-47
2023/04/22 02:10:59;;;;;;;6.20;1.98;;;;;;;16.05;45.24;98039.25;5108659;28;20046;-47
2023/04/22 02:13:26;;;;;;;9.02;2.00;;;;;;;16.04;45.26;98040.31;5092902;28;20093;-47
2023/04/22 02:15:52;;;;;;;5.38;2.03;;;;;;;16.04;45.53;98040.31;5092960;28;20047;-47
2023/04/22 02:18:18;;;;;;;3.97;2.20;;;;;;;16.04;45.32;98040.31;5092847;28;20062;-47
2023/04/22 02:20:44;;;;;;;8.05;2.13;;;;;;;16.01;45.37;98043.44;5091486;28;20024;-46
2023/04/22 02:23:10;;;;;;;5.97;1.90;;;;;;;16.06;45.51;98040.06;5093329;28;20370;-47
2023/04/22 02:25:37;;;;;;;6.40;1.85;;;;;;;16.08;45.16;98036.09;5108268;28;20032;-47
2023/04/22 02:28:02;;;;;;;3.88;1.85;;;;;;;15.96;45.33;98041.56;5108368;28;20128;-46
2023/04/22 02:30:28;;;;;;;3.33;1.60;;;;;;;15.81;45.69;98051.97;5108335;28;20023;-46
2023/04/22 02:32:54;;;;;;;5.90;1.83;;;;;;;15.77;45.75;98042.94;5108149;28;20055;-46
2023/04/22 02:35:20;;;;;;;14.93;2.20;;;;;;;15.64;46.38;98046.78;5092594;28;20432;-46
2023/04/22 02:37:46;;;;;;;5.35;1.90;;;;;;;15.71;46.25;98055.28;5091229;28;20034;-46
2023/04/22 02:40:12;;;;;;;9.25;2.00;;;;;;;15.74;46.01;98051.41;5108116;28;20088;-46
2023/04/22 02:42:37;;;;;;;6.38;2.00;;;;;;;15.80;45.91;98049.59;5092483;28;20020;-46
2023/04/22 02:45:04;;;;;;;4.63;2.33;;;;;;;15.82;45.93;98056.25;5091922;28;20024;-46
2023/04/22 02:47:29;;;;;;;3.88;1.80;;;;;;;15.77;45.88;98051.72;5092335;28;20024;-46
2023/04/22 02:49:55;;;;;;;6.57;2.25;;;;;;;15.75;45.87;98047.69;5108026;28;20088;-47
2023/04/22 02:52:20;;;;;;;2.47;1.88;;;;;;;15.81;45.98;98051.97;5092246;28;20108;-47
2023/04/22 02:54:46;;;;;;;14.98;2.63;;;;;;;15.87;45.71;98039.59;5091051;28;20027;-47
2023/04/22 02:57:12;;;;;;;8.65;1.77;;;;;;;15.81;45.51;98051.97;5092272;28;20016;-46
2023/04/22 02:59:37;;;;;;;10.45;2.28;;;;;;;15.71;45.54;98057.16;5092172;28;20028;-46
2023/04/22 03:02:03;;;;;;;7.50;1.95;;;;;;;15.63;45.66;98045.16;5092149;28;20031;-46
2023/04/22 03:04:29;;;;;;;4.00;2.13;;;;;;;15.61;45.82;98046.47;5092175;28;20035;-46
2023/04/22 03:06:55;;;;;;;2.90;1.50;;;;;;;15.60;45.93;98039.59;5091990;28;20028;-46
2023/04/22 03:09:20;;;;;;;6.20;2.35;;;;;;;15.68;45.93;98042.56;5092268;28;20413;-46
2023/04/22 03:11:46;;;;;;;8.57;2.10;;;;;;;15.73;45.83;98040.00;5090818;28;20032;-46
2023/04/22 03:14:11;;;;;;;10.77;2.05;;;;;;;15.82;45.79;98035.06;5091990;28;20497;-46
2023/04/22 03:16:37;;;;;;;6.60;1.92;;;;;;;15.88;45.68;98047.31;5107567;28;20035;-47
2023/04/22 03:19:03;;;;;;;6.35;2.00;;;;;;;15.96;45.42;98049.50;5107603;28;20057;-47
2023/04/22 03:21:28;;;;;;;9.38;2.28;;;;;;;16.01;45.18;98040.78;5107545;28;20024;-47
2023/04/22 03:23:54;;;;;;;5.97;2.00;;;;;;;16.04;45.07;98039.50;5107636;28;20028;-47
2023/04/22 03:26:20;;;;;;;8.43;2.55;;;;;;;16.05;45.27;98047.19;5092032;28;20116;-46
2023/04/22 03:28:46;;;;;;;6.43;1.80;;;;;;;16.18;45.05;98052.06;5090516;28;20123;-47
2023/04/22 03:31:12;;;;;;;4.38;2.00;;;;;;;16.25;44.31;98056.34;5091885;28;20583;-47
2023/04/22 03:33:37;;;;;;;6.45;1.90;;;;;;;16.26;44.40;98058.75;5107290;28;20601;-46
2023/04/22 03:36:03;;;;;;;9.27;3.10;;;;;;;16.27;44.30;98049.75;5107479;28;20030;-47
2023/04/22 03:38:29;;;;;;;3.90;1.77;;;;;;;16.15;44.38;98047.25;5107392;28;20035;-47
2023/04/22 03:40:55;;;;;;;5.45;2.20;;;;;;;16.11;44.24;98042.72;5107371;28;20066;-47
2023/04/22 03:43:20;;;;;;;9.18;2.65;;;;;;;15.92;44.39;98043.09;5091752;28;20042;-47
2023/04/22 03:45:46;;;;;;;5.35;1.73;;;;;;;15.84;44.62;98040.91;5107266;28;20035;-47
2023/04/22 03:48:12;;;;;;;7.10;2.17;;;;;;;15.75;44.80;98043.22;5091681;28;20073;-47
2023/04/22 03:50:37;;;;;;;6.70;1.77;;;;;;;15.53;44.97;98047.69;5091664;28;20062;-47
2023/04/22 03:53:03;;;;;;;7.18;1.70;;;;;;;15.36;45.68;98051.22;5107287;28;20145;-46
2023/04/22 03:55:29;;;;;;;10.20;1.70;;;;;;;15.26;45.60;98050.31;5107221;28;20047;-46
2023/04/22 03:57:54;;;;;;;2.40;1.73;;;;;;;15.11;46.11;98058.81;5111014;28;20107;-46
2023/04/22 04:00:20;;;;;;;8.65;2.20;;;;;;;14.86;46.94;98068.03;5095498;28;20027;-47
2023/04/22 04:02:46;;;;;;;4.15;1.90;;;;;;;14.80;47.41;98061.06;5094216;28;20028;-46
2023/04/22 04:05:12;;;;;;;3.30;1.98;;;;;;;14.86;47.62;98060.09;5094198;28;20118;-46
2023/04/22 04:07:38;;;;;;;4.13;2.13;;;;;;;14.84;47.65;98062.19;5095340;28;20036;-46
2023/04/22 04:10:04;;;;;;;4.68;1.92;;;;;;;14.79;47.80;98077.97;5095361;28;20028;-46
2023/04/22 04:12:30;;;;;;;4.65;2.15;;;;;;;14.67;48.05;98070.16;5095314;28;20038;-46
2023/04/22 04:14:55;;;;;;;11.20;3.35;;;;;;;14.62;48.41;98066.63;5111028;28;20069;-46
2023/04/22 04:17:24;;;;;;;8.63;2.15;;;;;;;14.58;48.62;98069.72;5095227;28;20019;-46
2023/04/22 04:19:51;;;;;;;4.55;2.13;;;;;;;14.56;48.66;98071.81;5095474;28;20058;-46
2023/04/22 04:22:17;;;;;;;7.05;2.30;;;;;;;14.54;48.32;98063.31;5093985;28;20035;-46
2023/04/22 04:24:43;;;;;;;4.53;2.10;;;;;;;14.56;48.36;98085.00;5095108;28;20035;-46
2023/04/22 04:27:10;;;;;;;4.82;1.90;;;;;;;14.62;47.72;98079.81;5094955;28;20024;-46
2023/04/22 04:29:36;;;;;;;9.60;3.25;;;;;;;14.65;47.77;98074.88;5110754;28;20413;-46
2023/04/22 04:32:03;;;;;;;5.78;1.77;;;;;;;14.67;47.83;98085.16;5095017;28;20043;-46
2023/04/22 04:34:30;;;;;;;4.60;2.10;;;;;;;14.70;48.59;98088.13;5093437;28;20044;-47
2023/04/22 04:36:56;;;;;;;6.18;2.08;;;;;;;14.72;48.85;98086.06;5110593;28;20168;-46
2023/04/22 04:39:22;;;;;;;2.33;1.67;;;;;;;14.61;48.38;98096.69;5094882;28;20449;-46
2023/04/22 04:41:48;;;;;;;4.07;1.80;;;;;;;14.58;48.27;98100.63;5094723;28;20028;-46
2023/04/22 04:44:14;;;;;;;6.32;2.10;;;;;;;14.54;48.51;98096.84;5094657;28;20038;-47
2023/04/22 04:46:40;;;;;;;4.10;1.90;;;;;;;14.60;49.28;98093.25;5110216;28;20446;-46
2023/04/22 04:49:08;;;;;;;11.90;2.30;;;;;;;14.70;49.02;98090.78;5094607;28;20111;-47
2023/04/22 04:51:34;;;;;;;5.63;1.80;;;;;;;14.80;49.04;98092.78;5093254;28;20513;-46
2023/04/22 04:54:00;;;;;;;3.30;2.00;;;;;;;14.89;49.04;98104.53;5110253;28;20024;-46
2023/04/22 04:56:25;;;;;;;9.65;2.58;;;;;;;14.94;48.59;98101.94;5110155;28;20034;-47
2023/04/22 04:58:51;;;;;;;12.45;3.13;;;;;;;14.75;49.31;98098.00;5110146;28;20040;-46
2023/04/22 05:01:16;;;;;;;4.10;2.08;;;;;;;14.80;49.41;98094.63;5093189;28;20024;-46
2023/04/22 05:03:42;;;;;;;5.97;1.80;;;;;;;14.91;49.31;98099.00;5094638;28;20034;-46
2023/04/22 05:06:09;;;;;;;14.70;2.65;;;;;;;15.21;48.80;98100.47;5109809;28;20090;-47
2023/04/22 05:08:35;;;;;;;8.50;2.08;;;;;;;15.50;47.53;98096.59;5109867;28;20028;-47
2023/04/22 05:11:00;;;;;;;7.70;2.30;;;;;;;15.50;47.13;98098.44;5094171;28;20034;-47
2023/04/22 05:13:27;;;;;;;6.00;2.00;;;;;;;15.63;47.08;98097.25;5094162;28;20058;-47
2023/04/22 05:15:52;;;;;;;8.82;2.60;;;;;;;15.66;46.62;98094.94;5094053;28;20402;-47
2023/04/22 05:18:18;;;;;;;11.18;2.40;;;;;;;15.69;46.83;98096.28;5094021;28;20020;-47
2023/04/22 05:20:43;;;;;;;5.97;2.47;;;;;;;15.77;46.58;98103.81;5109663;28;20405;-47
2023/04/22 05:23:09;;;;;;;9.45;2.40;;;;;;;15.91;46.39;98104.22;5109694;28;20081;-46
2023/04/22 05:25:35;;;;;;;7.28;2.20;;;;;;;16.07;45.73;98102.53;5093848;28;20562;-47
2023/04/22 05:28:00;;;;;;;11.10;2.60;;;;;;;15.90;45.64;98108.72;5109533;28;20097;-46
2023/04/22 05:30:26;;;;;;;8.73;2.55;;;;;;;15.77;45.87;98115.22;5109546;28;20032;-47
2023/04/22 05:32:52;;;;;;;6.70;2.08;;;;;;;15.71;45.90;98110.84;5093619;28;20131;-47
2023/04/22 05:35:17;;;;;;;8.90;2.65;;;;;;;15.61;46.61;98105.44;5093693;28;20108;-47
2023/04/22 05:37:43;;;;;;;13.70;2.85;;;;;;;15.62;46.66;98109.69;5092363;28;20036;-47
2023/04/22 05:40:09;;;;;;;15.93;3.45;;;;;;;15.51;46.47;98100.03;5093603;28;20503;-47
2023/04/22 05:42:34;;;;;;;16.98;4.57;;;;;;;15.55;47.31;98107.25;5109220;28;20024;-47
2023/04/22 05:45:00;;;;;;;13.05;2.95;;;;;;;15.83;46.85;98110.75;5109162;28;20034;-46
2023/04/22 05:47:27;;;;;;;10.95;2.50;;;;;;;16.01;46.49;98124.69;5094065;28;20055;-47
2023/04/22 05:49:52;;;;;;;11.80;3.00;;;;;;;16.12;46.33;98121.91;5093453;28;20024;-47
2023/04/22 05:52:18;;;;;;;5.88;2.08;;;;;;;16.15;45.71;98124.03;5093670;28;20085;-47
2023/04/22 05:54:43;;;;;;;28.48;4.65;;;;;;;16.06;46.08;98127.41;5093343;28;20071;-47
2023/04/22 05:57:09;;;;;;;22.05;4.05;;;;;;;16.17;46.26;98134.38;5093276;28;20038;-47
2023/04/22 05:59:35;;;;;;;10.43;2.95;;;;;;;16.65;45.94;98132.69;5093161;28;20512;-47
2023/04/22 06:02:01;;;;;;;9.68;2.92;;;;;;;17.22;44.14;98138.38;5108825;28;20036;-46
2023/04/22 06:04:26;;;;;;;14.80;3.60;;;;;;;17.41;44.18;98136.91;5093228;28;20379;-47
2023/04/22 06:06:52;;;;;;;21.85;4.50;;;;;;;17.47;43.43;98140.38;5092989;28;20024;-47
2023/04/22 06:09:20;;;;;;;14.43;4.28;;;;;;;17.34;43.93;98131.03;5093287;28;20035;-47
2023/04/22 06:11:45;;;;;;;21.23;5.05;;;;;;;17.45;43.77;98129.22;5092924;28;20107;-47
2023/04/22 06:14:12;;;;;;;18.42;5.55;;;;;;;17.37;44.13;98128.66;5091763;28;20058;-47
2023/04/22 06:16:38;;;;;;;25.75;5.55;;;;;;;17.27;44.41;98136.56;5108864;28;20176;-47
2023/04/22 06:19:05;;;;;;;25.00;4.80;;;;;;;17.28;43.60;98132.06;5107864;28;20028;-47
2023/04/22 06:21:32;;;;;;;16.13;4.25;;;;;;;17.17;43.88;98126.69;5108453;28;20115;-47
2023/04/22 06:23:59;;;;;;;17.88;4.60;;;;;;;17.00;43.66;98136.66;5091515;28;20024;-47
2023/04/22 06:26:25;;;;;;;19.00;5.05;;;;;;;16.86;44.78;98140.81;5092633;28;20383;-47
2023/04/22 06:28:51;;;;;;;9.85;3.45;;;;;;;16.85;45.22;98145.31;5108334;28;20106;-47
2023/04/22 06:31:17;;;;;;;9.45;3.33;;;;;;;16.81;44.82;98148.72;5092676;28;20101;-46
2023/04/22 06:33:42;;;;;;;13.63;3.45;;;;;;;16.62;45.31;98151.75;5107993;28;20055;-47
2023/04/22 06:36:08;;;;;;;14.25;3.35;;;;;;;16.54;45.15;98145.06;5092546;28;20032;-47
2023/04/22 06:38:34;;;;;;;16.60;3.90;;;;;;;16.38;45.92;98140.69;5108183;28;20028;-46
2023/04/22 06:41:00;;;;;;;10.05;3.78;;;;;;;16.30;46.54;98146.44;5074291;28;20039;-47
2023/04/22 06:43:25;;;;;;;13.82;3.88;;;;;;;16.26;46.65;98143.47;5092701;28;20075;-47
2023/04/22 06:45:51;;;;;;;22.70;5.45;;;;;;;16.18;47.80;98150.03;5092359;28;20074;-47
2023/04/22 06:48:17;;;;;;;13.15;3.88;;;;;;;16.11;48.37;98152.06;5092366;28;20111;-47
2023/04/22 06:50:42;;;;;;;8.30;3.03;;;;;;;16.06;48.79;98152.03;5091053;28;20032;-46
2023/04/22 06:53:08;;;;;;;17.38;4.60;;;;;;;16.07;48.78;98152.81;5107985;28;20023;-47
2023/04/22 06:55:34;;;;;;;29.95;4.00;;;;;;;16.14;46.07;98158.72;5092477;28;20028;-47
2023/04/22 06:58:00;;;;;;;26.70;5.10;;;;;;;16.43;46.64;98155.81;5092203;28;20555;-47
2023/04/22 07:00:27;;;;;;;18.58;3.92;;;;;;;16.74;45.42;98162.16;5092096;28;20024;-46
2023/04/22 07:02:52;;;;;;;10.43;3.08;;;;;;;16.99;44.42;98164.25;5092111;28;20028;-47
2023/04/22 07:05:19;;;;;;;12.38;3.10;;;;;;;17.00;43.97;98172.97;5090949;28;20465;-47
2023/04/22 07:07:45;;;;;;;10.15;2.83;;;;;;;16.93;43.53;98159.97;5092115;28;20160;-47
2023/04/22 07:10:15;;;;;;;14.77;3.78;;;;;;;16.88;43.72;98158.06;5092022;28;20055;-47
2023/04/22 07:12:40;;;;;;;8.27;2.50;;;;;;;16.90;43.47;98157.81;5092038;28;20553;-47
2023/04/22 07:15:06;;;;;;;15.68;3.22;;;;;;;16.90;43.31;98163.09;5090654;28;20131;-47
2023/04/22 07:17:32;;;;;;;11.95;3.00;;;;;;;16.90;43.18;98157.81;5091982;28;20031;-46
2023/04/22 07:19:58;;;;;;;11.85;2.50;;;;;;;17.05;42.84;98170.38;5107628;28;20035;-47
2023/04/22 07:22:24;;;;;;;20.85;4.40;;;;;;;17.12;42.54;98171.75;5107845;28;20035;-47
2023/04/22 07:24:50;;;;;;;24.45;4.25;;;;;;;17.29;42.47;98171.59;5091899;28;20099;-47
2023/04/22 07:27:16;;;;;;;18.13;3.67;;;;;;;17.42;41.05;98158.91;5091786;28;20036;-46
2023/04/22 07:29:42;;;;;;;22.50;3.45;;;;;;;17.51;40.60;98168.78;5091869;28;20032;-47
2023/04/22 07:32:08;;;;;;;16.67;3.70;;;;;;;17.58;40.20;98160.59;5094762;28;20035;-47
2023/04/22 07:34:35;;;;;;;7.72;1.80;;;;;;;17.49;39.54;98156.84;5095835;28;20080;-47
2023/04/22 07:37:01;;;;;;;12.13;2.78;;;;;;;17.48;39.56;98155.22;5111701;28;20530;-47
2023/04/22 07:39:26;;;;;;;8.27;2.38;;;;;;;17.56;39.09;98150.22;5095981;28;20106;-47
2023/04/22 07:41:52;;;;;;;7.05;1.70;;;;;;;17.57;38.41;98154.47;5096103;28;20051;-47
2023/04/22 07:44:20;;;;;;;7.90;1.75;;;;;;;17.53;38.23;98165.88;5111664;28;20401;-47
2023/04/22 07:46:46;;;;;;;4.28;2.10;;;;;;;17.41;37.76;98160.00;5096028;28;20439;-47
2023/04/22 07:49:16;;;;;;;2.72;1.38;;;;;;;17.28;37.80;98156.72;5095769;28;20073;-47
2023/04/22 07:51:45;;;;;;;5.05;1.58;;;;;;;17.11;37.70;98156.09;5095694;28;20031;-47
2023/04/22 07:54:11;;;;;;;17.92;2.38;;;;;;;16.95;38.06;98156.00;5095652;28;20074;-47
2023/04/22 07:56:37;;;;;;;7.30;1.58;;;;;;;16.88;37.41;98158.06;5111364;28;20524;-46
2023/04/22 07:59:03;;;;;;;8.90;2.15;;;;;;;16.74;38.41;98148.91;5095603;28;20052;-46
2023/04/22 08:01:29;;;;;;;11.60;1.55;;;;;;;16.82;38.25;98153.78;5095503;28;20107;-47
2023/04/22 08:03:55;;;;;;;4.20;1.95;;;;;;;16.99;37.39;98155.50;5094264;28;20494;-47
2023/04/22 08:06:21;;;;;;;19.98;2.40;;;;;;;16.98;37.46;98149.38;5095360;28;20024;-47
2023/04/22 08:08:46;;;;;;;7.20;1.73;;;;;;;17.08;37.74;98170.69;5111037;28;20031;-47
2023/04/22 08:11:12;;;;;;;5.35;2.20;;;;;;;17.14;37.48;98174.13;5095351;28;20397;-47
2023/04/22 08:13:38;;;;;;;2.35;1.30;;;;;;;17.15;36.98;98179.19;5094120;28;20103;-47
2023/04/22 08:16:05;;;;;;;12.50;2.05;;;;;;;17.16;37.53;98177.31;5095219;28;20031;-46
2023/04/22 08:18:31;;;;;;;4.03;1.55;;;;;;;17.31;37.28;98169.47;5095193;28;20489;-47
2023/04/22 08:20:56;;;;;;;7.32;1.80;;;;;;;17.43;37.15;98155.22;5095116;28;20031;-46
2023/04/22 08:23:22;;;;;;;11.32;1.60;;;;;;;17.62;36.97;98160.88;5095436;28;20028;-46
2023/04/22 08:25:48;;;;;;;12.13;1.95;;;;;;;17.63;36.98;98165.13;5095026;28;20076;-47
2023/04/22 08:28:14;;;;;;;4.50;1.58;;;;;;;17.65;37.20;98174.44;5095037;28;20054;-47
2023/04/22 08:30:40;;;;;;;5.70;2.38;;;;;;;17.67;37.03;98172.31;5094961;28;20051;-47
2023/04/22 08:33:05;;;;;;;7.43;1.90;;;;;;;17.72;37.08;98177.63;5110425;28;20054;-47
2023/04/22 08:35:34;;;;;;;7.78;1.98;;;;;;;17.72;37.01;98179.50;5094942;28;20103;-47
2023/04/22 08:38:00;;;;;;;3.47;1.52;;;;;;;17.72;37.24;98182.94;5095126;28;20027;-47
2023/04/22 08:40:27;;;;;;;3.03;1.30;;;;;;;17.68;36.91;98181.06;5110477;28;20023;-47
2023/04/22 08:42:54;;;;;;;7.82;1.75;;;;;;;17.57;37.65;98185.53;5094032;28;20505;-47
2023/04/22 08:45:21;;;;;;;3.53;1.27;;;;;;;17.52;36.95;98185.50;5076724;28;20683;-47
2023/04/22 08:47:48;;;;;;;7.05;3.38;;;;;;;17.37;37.43;98188.88;5110368;28;20035;-47
2023/04/22 08:50:14;;;;;;;6.43;3.58;;;;;;;17.33;38.00;98187.78;5094577;28;20401;-47
2023/04/22 08:52:43;;;;;;;7.28;2.92;;;;;;;17.36;37.86;98200.53;5110268;28;20022;-47
2023/04/22 08:55:09;;;;;;;3.47;1.67;;;;;;;17.43;37.72;98190.50;5094514;28;20024;-47
2023/04/22 08:57:38;;;;;;;10.27;2.15;;;;;;;17.53;38.22;98190.56;5094497;28;20026;-47
2023/04/22 09:00:05;;;;;;;6.68;1.90;;;;;;;17.66;37.33;98196.44;5093528;28;20052;-47
2023/04/22 09:02:32;;;;;;;8.93;1.80;;;;;;;17.74;37.37;98191.44;5094318;28;20028;-47
2023/04/22 09:05:00;;;;;;;7.47;1.90;;;;;;;17.85;36.68;98188.84;5093048;28;20437;-47
2023/04/22 09:07:28;;;;;;;9.15;1.80;;;;;;;17.89;36.63;98184.66;5092799;28;20105;-47
2023/04/22 09:09:55;;;;;;;6.75;1.48;;;;;;;18.00;36.56;98185.47;5094288;28;20051;-46
2023/04/22 09:12:21;;;;;;;2.17;1.00;;;;;;;18.08;36.02;98208.84;5093008;28;20027;-47
2023/04/22 09:14:47;;;;;;;4.95;1.60;;;;;;;18.17;36.33;98194.81;5109923;28;20024;-47
2023/04/22 09:17:17;;;;;;;4.60;1.40;;;;;;;18.32;35.97;98194.03;5094423;28;20507;-47
2023/04/22 09:19:44;;;;;;;19.92;2.13;;;;;;;19.06;35.87;98201.84;5110092;28;20370;-45
2023/04/22 09:22:13;;;;;;;6.10;1.42;;;;;;;19.99;33.95;98205.06;5094048;28;20023;-45
2023/04/22 09:24:57;;;;;;;5.07;1.67;;;;;;;20.49;33.40;98201.31;5094005;28;20024;-45
2023/04/22 09:27:24;;;;;;;5.28;1.73;;;;;;;20.73;32.71;98201.44;5093900;28;20024;-45
2023/04/22 09:29:53;;;;;;;11.60;1.60;;;;;;;20.51;32.33;98204.50;5109491;28;20401;-45
2023/04/22 09:32:19;;;;;;;5.25;2.10;;;;;;;20.34;33.37;98210.22;5093766;28;20494;-45
2023/04/22 09:34:50;;;;;;;3.10;1.60;;;;;;;20.32;32.95;98211.56;5093587;28;20047;-45
2023/04/22 09:37:23;;;;;;;9.40;1.52;;;;;;;20.20;32.88;98208.44;5109397;28;20028;-45
2023/04/22 09:39:49;;;;;;;5.40;1.40;;;;;;;20.06;32.53;98209.03;5093682;28;20020;-45
2023/04/22 09:42:16;;;;;;;8.65;1.98;;;;;;;19.65;32.85;98213.69;5109231;28;20031;-45
2023/04/22 09:44:41;;;;;;;4.78;1.70;;;;;;;19.33;33.15;98212.94;5092383;28;20020;-45
2023/04/22 09:47:09;;;;;;;6.75;2.97;;;;;;;19.12;34.21;98224.72;5092415;28;20427;-45
2023/04/22 09:49:38;;;;;;;6.95;1.65;;;;;;;19.06;33.53;98228.44;5109173;28;20050;-45
2023/04/22 09:52:04;;;;;;;3.35;1.10;;;;;;;18.88;33.32;98222.56;5093434;28;20039;-45
2023/04/22 09:54:30;;;;;;;6.90;1.30;;;;;;;18.72;33.65;98218.28;5107986;28;20044;-45
2023/04/22 09:56:56;;;;;;;14.70;2.45;;;;;;;18.68;34.16;98209.25;5093213;28;20028;-45
2023/04/22 09:59:27;;;;;;;7.28;1.73;;;;;;;18.75;33.79;98207.94;5108955;28;20027;-45
2023/04/22 10:01:55;;;;;;;9.52;2.15;;;;;;;18.79;33.75;98197.56;5108900;28;20028;-45
2023/04/22 10:04:24;;;;;;;6.05;1.13;;;;;;;18.80;33.32;98193.88;5093224;28;20050;-45
2023/04/22 10:06:51;;;;;;;6.80;1.77;;;;;;;18.76;33.93;98200.75;5092992;28;20045;-45
2023/04/22 10:09:18;;;;;;;4.28;1.60;;;;;;;18.95;33.72;98196.53;5093053;28;20027;-45
2023/04/22 10:11:44;;;;;;;7.10;1.98;;;;;;;19.12;33.37;98196.25;5092974;28;20103;-45
2023/04/22 10:14:12;;;;;;;6.57;1.63;;;;;;;19.33;33.01;98206.84;5108968;28;20024;-45
2023/04/22 10:16:41;;;;;;;9.15;1.50;;;;;;;19.43;32.75;98198.03;5108639;28;20020;-45
2023/04/22 10:19:10;;;;;;;9.45;1.33;;;;;;;19.58;32.94;98200.69;5092881;28;20035;-45
2023/04/22 10:21:36;;;;;;;8.43;1.55;;;;;;;19.86;32.85;98195.78;5092859;28;20035;-45
2023/04/22 10:24:04;;;;;;;5.57;1.63;;;;;;;20.12;31.72;98178.63;5108502;28;20416;-45
2023/04/22 10:26:42;;;;;;;8.43;1.90;;;;;;;20.33;31.31;98179.31;5092936;28;20439;-45
2023/04/22 10:29:15;;;;;;;4.93;1.52;;;;;;;20.43;31.02;98186.44;5108402;28;20446;-45
2023/04/22 10:31:43;;;;;;;5.68;1.92;;;;;;;20.36;31.24;98180.59;5092620;28;20085;-45
2023/04/22 10:34:13;;;;;;;12.50;2.00;;;;;;;20.29;31.79;98169.47;5092455;28;20540;-45
2023/04/22 10:36:57;;;;;;;15.80;2.50;;;;;;;20.09;31.73;98168.53;5092549;28;20042;-45
2023/04/22 10:39:24;;;;;;;9.02;1.55;;;;;;;19.85;31.82;98164.91;5092879;28;20055;-45
2023/04/22 10:42:06;;;;;;;3.38;1.40;;;;;;;19.72;32.57;98167.09;5108049;28;20027;-45
2023/04/22 10:44:51;;;;;;;13.45;2.03;;;;;;;19.61;32.37;98165.50;5092822;28;20481;-45
2023/04/22 10:47:31;;;;;;;3.28;1.30;;;;;;;19.51;32.77;98174.31;5108350;28;20066;-45
2023/04/22 10:50:26;;;;;;;2.63;1.40;;;;;;;19.57;32.90;98180.44;5092329;28;20102;-45
2023/04/22 10:52:56;;;;;;;5.68;1.10;;;;;;;19.58;32.67;98179.38;5092277;28;20016;-45
2023/04/22 10:55:23;;;;;;;5.07;1.42;;;;;;;19.41;33.13;98171.69;5092333;28;20497;-45
2023/04/22 10:57:51;;;;;;;10.80;2.10;;;;;;;19.22;33.63;98170.69;5107895;28;20024;-45
2023/04/22 11:00:28;;;;;;;13.52;2.13;;;;;;;19.33;33.90;98169.59;5092223;28;20066;-45
2023/04/22 11:03:15;;;;;;;6.00;1.40;;;;;;;19.54;33.34;98157.81;5092236;28;20024;-45
2023/04/22 11:05:41;;;;;;;8.98;1.75;;;;;;;19.64;33.13;98161.50;5091558;28;20028;-45
2023/04/22 11:08:22;;;;;;;2.35;1.30;;;;;;;19.58;33.12;98160.75;5092149;28;20073;-45
2023/04/22 11:10:50;;;;;;;7.28;1.65;;;;;;;19.41;33.46;98169.03;5092048;28;20020;-45
2023/04/22 11:13:20;;;;;;;10.52;2.65;;;;;;;19.41;33.53;98165.59;5091996;28;20076;-45
2023/04/22 11:15:53;;;;;;;11.02;1.98;;;;;;;19.45;33.91;98166.63;5090658;28;20028;-45
2023/04/22 11:18:21;;;;;;;4.13;1.92;;;;;;;19.60;33.88;98152.47;5091947;28;20485;-45
2023/04/22 11:20:48;;;;;;;7.47;1.67;;;;;;;19.74;33.50;98156.97;5107842;28;20027;-45
2023/04/22 11:23:25;;;;;;;5.50;1.50;;;;;;;19.87;33.51;98168.09;5092003;28;20024;-45
2023/04/22 11:26:03;;;;;;;5.85;1.52;;;;;;;20.10;33.08;98170.13;5107497;28;20032;-45
2023/04/22 11:28:29;;;;;;;6.22;1.92;;;;;;;20.37;32.43;98160.91;5091885;28;20070;-45
2023/04/22 11:31:21;;;;;;;5.47;2.60;;;;;;;20.80;32.71;98163.78;5091763;28;20024;-45